createdAt,value
2022-12-25T00:00:20.423Z,1.20
2022-12-25T00:05:44.058Z,1.20
2022-12-25T00:10:47.460Z,1.20
2022-12-25T00:15:50.858Z,1.30
2022-12-25T00:21:02.437Z,1.30
2022-12-25T00:26:07.901Z,1.30
2022-12-25T00:31:14.921Z,1.30
2022-12-25T00:36:20.796Z,1.30
2022-12-25T00:41:43.288Z,1.30
2022-12-25T00:46:47.024Z,1.30
2022-12-25T00:51:54.081Z,1.30
2022-12-25T00:56:57.488Z,1.30
2022-12-25T01:02:21.653Z,1.30
2022-12-25T01:07:26.817Z,1.40
2022-12-25T01:12:31.950Z,1.40
2022-12-25T01:17:35.880Z,1.40
2022-12-25T01:22:39.424Z,1.50
2022-12-25T01:27:43.330Z,1.50
2022-12-25T01:32:46.733Z,1.60
2022-12-25T01:37:51.772Z,1.60
2022-12-25T01:42:55.268Z,1.60
2022-12-25T01:47:59.351Z,1.60
2022-12-25T01:53:03.683Z,1.60
2022-12-25T01:58:07.204Z,1.60
2022-12-25T02:03:10.722Z,1.60
2022-12-25T02:08:17.252Z,1.60
2022-12-25T02:13:21.610Z,1.60
2022-12-25T02:18:30.567Z,1.60
2022-12-25T02:24:02.434Z,1.60
2022-12-25T02:29:30.591Z,1.60
2022-12-25T02:35:02.093Z,1.50
2022-12-25T02:40:23.305Z,1.50
2022-12-25T02:45:57.377Z,1.50
2022-12-25T02:51:23.706Z,1.60
2022-12-25T02:56:48.871Z,1.60
2022-12-25T03:02:12.065Z,1.70
2022-12-25T03:07:22.951Z,1.70
2022-12-25T03:12:57.975Z,1.70
2022-12-25T03:18:05.398Z,1.70
2022-12-25T03:23:34.667Z,1.70
2022-12-25T03:28:38.075Z,1.70
2022-12-25T03:34:25.455Z,1.70
2022-12-25T03:39:56.434Z,1.70
2022-12-25T03:45:28.357Z,1.70
2022-12-25T03:51:13.766Z,1.70
2022-12-25T03:56:37.647Z,1.70
2022-12-25T04:01:59.650Z,1.70
2022-12-25T04:07:21.776Z,1.80
2022-12-25T04:12:43.692Z,1.70
2022-12-25T04:18:05.863Z,1.70
2022-12-25T04:23:28.128Z,1.70
2022-12-25T04:28:50.366Z,1.70
2022-12-25T04:34:14.678Z,1.70
2022-12-25T04:39:18.175Z,1.60
2022-12-25T04:44:21.506Z,1.50
2022-12-25T04:49:24.771Z,1.60
2022-12-25T04:54:28.196Z,1.50
2022-12-25T04:59:31.636Z,1.50
2022-12-25T05:04:53.452Z,1.50
2022-12-25T05:09:56.973Z,1.50
2022-12-25T05:15:00.483Z,1.60
2022-12-25T05:20:05.422Z,1.50
2022-12-25T05:25:08.781Z,1.60
2022-12-25T05:30:12.416Z,1.70
2022-12-25T05:35:15.652Z,1.70
2022-12-25T05:40:19.103Z,1.70
2022-12-25T05:45:22.218Z,1.70
2022-12-25T05:50:25.933Z,1.70
2022-12-25T05:55:29.483Z,1.70
2022-12-25T06:00:33.514Z,1.70
2022-12-25T06:05:39.758Z,1.70
2022-12-25T06:10:43.301Z,1.70
2022-12-25T06:15:46.436Z,1.70
2022-12-25T06:20:49.829Z,1.70
2022-12-25T06:25:53.269Z,1.70
2022-12-25T06:30:56.676Z,1.80
2022-12-25T06:35:59.825Z,1.80
2022-12-25T06:41:09.799Z,1.80
2022-12-25T06:46:14.002Z,1.80
2022-12-25T06:51:19.821Z,1.80
2022-12-25T06:56:26.193Z,1.90
2022-12-25T07:01:32.778Z,1.90
2022-12-25T07:06:36.333Z,1.90
2022-12-25T07:11:39.601Z,1.90
2022-12-25T07:16:44.361Z,1.90
2022-12-25T07:21:47.866Z,2.00
2022-12-25T07:26:52.427Z,2.00
2022-12-25T07:31:55.965Z,2.00
2022-12-25T07:36:59.655Z,1.90
2022-12-25T07:42:03.199Z,1.90
2022-12-25T07:47:07.234Z,1.80
2022-12-25T07:52:10.380Z,1.90
2022-12-25T07:57:14.231Z,1.80
2022-12-25T08:02:18.394Z,1.90
2022-12-25T08:07:22.695Z,1.90
2022-12-25T08:12:25.951Z,1.90
2022-12-25T08:17:29.107Z,1.90
2022-12-25T08:22:32.636Z,2.10
2022-12-25T08:27:36.829Z,2.10
2022-12-25T08:32:40.803Z,2.20
2022-12-25T08:37:44.377Z,2.20
2022-12-25T08:42:47.820Z,2.20
2022-12-25T08:47:55.958Z,2.20
2022-12-25T08:52:59.526Z,2.20
2022-12-25T08:58:03.115Z,2.20
2022-12-25T09:03:06.803Z,2.30
2022-12-25T09:08:16.969Z,2.30
2022-12-25T09:13:21.365Z,2.40
2022-12-25T09:18:24.626Z,2.40
2022-12-25T09:23:28.969Z,2.50
2022-12-25T09:28:32.621Z,2.60
2022-12-25T09:33:36.645Z,2.70
2022-12-25T09:38:40.841Z,2.80
2022-12-25T09:44:06.480Z,2.80
2022-12-25T09:49:34.340Z,2.90
2022-12-25T09:54:49.760Z,3.00
2022-12-25T09:59:56.635Z,3.00
2022-12-25T10:05:11.895Z,3.20
2022-12-25T10:10:34.189Z,3.20
2022-12-25T10:15:58.058Z,3.30
2022-12-25T10:21:09.368Z,3.40
2022-12-25T10:26:25.617Z,3.40
2022-12-25T10:31:31.076Z,3.40
2022-12-25T10:36:34.840Z,3.50
2022-12-25T10:42:03.851Z,3.60
2022-12-25T10:47:07.168Z,3.70
2022-12-25T10:52:23.291Z,3.70
2022-12-25T10:57:29.429Z,3.80
2022-12-25T11:02:40.306Z,3.90
2022-12-25T11:07:51.700Z,3.90
2022-12-25T11:12:55.614Z,4.00
2022-12-25T11:17:59.369Z,4.00
2022-12-25T11:23:02.687Z,4.00
2022-12-25T11:28:07.526Z,4.20
2022-12-25T11:33:13.858Z,4.10
2022-12-25T11:38:17.526Z,4.20
2022-12-25T11:43:21.002Z,4.20
2022-12-25T11:48:37.185Z,4.30
2022-12-25T11:54:01.821Z,4.40
2022-12-25T11:59:18.481Z,4.40
2022-12-25T12:04:36.876Z,4.40
2022-12-25T12:10:04.283Z,4.40
2022-12-25T12:15:17.860Z,4.50
2022-12-25T12:20:35.388Z,4.50
2022-12-25T12:25:43.543Z,4.50
2022-12-25T12:31:07.042Z,4.50
2022-12-25T12:36:14.991Z,4.50
2022-12-25T12:41:18.667Z,4.60
2022-12-25T12:46:30.429Z,4.60
2022-12-25T12:51:37.870Z,4.70
2022-12-25T12:56:41.233Z,4.70
2022-12-25T13:02:44.831Z,4.70
2022-12-25T13:08:00.431Z,4.70
2022-12-25T13:13:27.258Z,4.70
2022-12-25T13:18:32.210Z,4.60
2022-12-25T13:23:38.524Z,4.60
2022-12-25T13:28:42.221Z,4.60
2022-12-25T13:33:59.694Z,4.60
2022-12-25T13:39:03.931Z,4.60
2022-12-25T13:44:23.856Z,4.50
2022-12-25T13:49:27.163Z,4.40
2022-12-25T13:54:30.339Z,4.40
2022-12-25T13:59:33.993Z,4.40
2022-12-25T14:04:45.300Z,4.50
2022-12-25T14:09:51.511Z,4.50
2022-12-25T14:14:55.573Z,4.50
2022-12-25T14:20:07.537Z,4.50
2022-12-25T14:25:16.499Z,4.50
2022-12-25T14:30:20.025Z,4.50
2022-12-25T14:35:24.041Z,4.50
2022-12-25T14:40:36.682Z,4.40
2022-12-25T14:45:40.057Z,4.40
2022-12-25T14:50:54.027Z,4.40
2022-12-25T14:55:57.892Z,4.50
2022-12-25T15:01:04.153Z,4.50
2022-12-25T15:06:20.113Z,4.50
2022-12-25T15:11:23.699Z,4.40
2022-12-25T15:16:31.347Z,4.50
2022-12-25T15:21:36.902Z,4.50
2022-12-25T15:26:41.152Z,4.50
2022-12-25T15:31:44.371Z,4.50
2022-12-25T15:36:48.868Z,4.40
2022-12-25T15:42:10.753Z,4.50
2022-12-25T15:47:16.194Z,4.60
2022-12-25T15:52:19.843Z,4.60
2022-12-25T15:57:24.392Z,4.60
2022-12-25T16:02:28.970Z,4.70
2022-12-25T16:07:34.260Z,4.80
2022-12-25T16:12:39.653Z,4.80
2022-12-25T16:17:43.559Z,4.70
2022-12-25T16:22:47.161Z,4.70
2022-12-25T16:27:50.962Z,4.60
2022-12-25T16:32:54.851Z,4.60
2022-12-25T16:37:58.054Z,4.60
2022-12-25T16:43:01.484Z,4.60
2022-12-25T16:48:04.860Z,4.70
2022-12-25T16:53:09.025Z,4.70
2022-12-25T16:58:12.581Z,4.80
2022-12-25T17:03:16.240Z,4.80
2022-12-25T17:08:21.751Z,4.90
2022-12-25T17:13:28.267Z,4.90
2022-12-25T17:18:34.678Z,5.00
2022-12-25T17:23:40.235Z,4.90
2022-12-25T17:28:44.257Z,5.00
2022-12-25T17:33:47.800Z,5.00
2022-12-25T17:38:51.427Z,5.00
2022-12-25T17:43:55.302Z,5.00
2022-12-25T17:49:01.098Z,5.00
2022-12-25T17:54:04.939Z,5.00
2022-12-25T17:59:11.198Z,5.00
2022-12-25T18:04:14.425Z,4.90
2022-12-25T18:09:19.520Z,4.90
2022-12-25T18:14:23.097Z,4.80
2022-12-25T18:19:26.543Z,4.70
2022-12-25T18:24:30.160Z,4.80
2022-12-25T18:29:34.467Z,4.70
2022-12-25T18:34:38.112Z,4.70
2022-12-25T18:39:41.571Z,4.70
2022-12-25T18:44:45.357Z,4.70
2022-12-25T18:49:48.960Z,4.70
2022-12-25T18:54:52.575Z,4.70
2022-12-25T18:59:56.262Z,4.90
2022-12-25T19:05:00.108Z,5.00
2022-12-25T19:10:05.600Z,5.00
2022-12-25T19:15:11.100Z,5.00
2022-12-25T19:20:14.618Z,5.00
2022-12-25T19:25:19.293Z,5.00
2022-12-25T19:30:22.703Z,4.90
2022-12-25T19:35:26.442Z,4.80
2022-12-25T19:40:30.271Z,4.80
2022-12-25T19:45:34.044Z,4.80
2022-12-25T19:50:37.591Z,4.80
2022-12-25T19:55:41.511Z,4.90
2022-12-25T20:00:45.470Z,4.90
2022-12-25T20:05:49.159Z,4.90
2022-12-25T20:10:53.732Z,5.00
2022-12-25T20:16:02.451Z,5.10
2022-12-25T20:21:11.614Z,5.10
2022-12-25T20:26:18.588Z,5.20
2022-12-25T20:31:29.777Z,5.30
2022-12-25T20:36:37.346Z,5.30
2022-12-25T20:41:42.743Z,5.20
2022-12-25T20:46:47.130Z,5.30
2022-12-25T20:51:51.476Z,5.30
2022-12-25T20:56:55.803Z,5.30
2022-12-25T21:02:03.017Z,5.30
2022-12-25T21:07:07.906Z,5.20
2022-12-25T21:12:11.809Z,5.20
2022-12-25T21:17:15.889Z,5.20
2022-12-25T21:22:19.901Z,5.20
2022-12-25T21:27:23.646Z,5.20
2022-12-25T21:32:47.477Z,5.10
2022-12-25T21:37:51.231Z,5.00
2022-12-25T21:42:54.778Z,5.00
2022-12-25T21:48:00.313Z,4.90
2022-12-25T21:53:08.215Z,4.80
2022-12-25T21:58:12.199Z,4.80
2022-12-25T22:03:16.030Z,4.80
2022-12-25T22:08:22.076Z,4.80
2022-12-25T22:13:44.841Z,4.90
2022-12-25T22:19:07.039Z,5.00
2022-12-25T22:24:10.906Z,5.10
2022-12-25T22:29:14.540Z,5.10
2022-12-25T22:34:18.172Z,5.20
2022-12-25T22:39:21.910Z,5.20
2022-12-25T22:44:26.882Z,5.30
2022-12-25T22:49:30.923Z,5.30
2022-12-25T22:54:34.834Z,5.20
2022-12-25T22:59:37.975Z,5.30
2022-12-25T23:04:41.468Z,5.30
2022-12-25T23:09:45.607Z,5.30
2022-12-25T23:14:49.051Z,5.30
2022-12-25T23:20:11.112Z,5.40
2022-12-25T23:25:34.376Z,5.40
2022-12-25T23:30:37.892Z,5.40
2022-12-25T23:35:41.359Z,5.40
2022-12-25T23:40:44.781Z,5.40
2022-12-25T23:45:48.190Z,5.40
2022-12-25T23:50:51.732Z,5.50
2022-12-25T23:55:56.714Z,5.50
